createdAt,value
2023-01-29T00:02:18.662Z,54.77
2023-01-29T00:04:45.969Z,54.48
2023-01-29T00:07:12.942Z,54.87
2023-01-29T00:09:40.464Z,54.26
2023-01-29T00:12:10.654Z,54.10
2023-01-29T00:14:37.893Z,54.73
2023-01-29T00:17:05.002Z,54.91
2023-01-29T00:19:32.240Z,54.72
2023-01-29T00:21:59.227Z,55.20
2023-01-29T00:24:26.438Z,55.33
2023-01-29T00:26:53.401Z,55.02
2023-01-29T00:29:22.004Z,55.02
2023-01-29T00:31:49.044Z,54.89
2023-01-29T00:34:16.270Z,54.92
2023-01-29T00:36:45.000Z,55.06
2023-01-29T00:39:13.030Z,54.48
2023-01-29T00:41:58.412Z,54.79
2023-01-29T00:44:44.224Z,54.31
2023-01-29T00:47:29.421Z,53.88
2023-01-29T00:49:57.545Z,54.44
2023-01-29T00:52:24.633Z,54.77
2023-01-29T00:55:01.077Z,54.18
2023-01-29T00:57:31.489Z,54.03
2023-01-29T00:59:58.944Z,53.92
2023-01-29T01:02:45.029Z,54.21
2023-01-29T01:05:19.237Z,54.61
2023-01-29T01:07:52.999Z,54.68
2023-01-29T01:10:30.215Z,54.37
2023-01-29T01:13:04.471Z,55.50
2023-01-29T01:15:36.404Z,54.43
2023-01-29T01:18:05.017Z,54.92
2023-01-29T01:20:35.949Z,54.38
2023-01-29T01:23:03.529Z,54.48
2023-01-29T01:25:31.190Z,54.53
2023-01-29T01:30:26.998Z,54.15
2023-01-29T01:32:54.163Z,54.53
2023-01-29T01:35:21.444Z,54.58
2023-01-29T01:37:48.360Z,54.87
2023-01-29T01:40:22.775Z,54.85
2023-01-29T01:42:56.678Z,54.78
2023-01-29T01:45:33.528Z,54.85
2023-01-29T01:48:08.240Z,55.15
2023-01-29T01:50:45.817Z,55.32
2023-01-29T01:53:17.793Z,55.35
2023-01-29T01:55:52.766Z,55.09
2023-01-29T01:58:30.918Z,55.71
2023-01-29T02:00:59.293Z,55.41
2023-01-29T02:03:49.583Z,55.44
2023-01-29T02:06:35.394Z,55.74
2023-01-29T02:09:32.425Z,55.88
2023-01-29T02:11:59.767Z,56.21
2023-01-29T02:14:27.288Z,56.47
2023-01-29T02:16:54.576Z,56.57
2023-01-29T02:19:46.152Z,56.70
2023-01-29T02:22:50.433Z,57.31
2023-01-29T02:25:36.227Z,57.48
2023-01-29T02:28:25.354Z,57.52
2023-01-29T02:31:16.844Z,57.17
2023-01-29T02:34:17.999Z,58.11
2023-01-29T02:37:09.507Z,57.67
2023-01-29T02:39:57.068Z,57.72
2023-01-29T02:43:00.844Z,58.32
2023-01-29T02:45:43.627Z,58.80
2023-01-29T02:48:20.940Z,58.86
2023-01-29T02:51:05.514Z,59.13
2023-01-29T02:53:48.832Z,59.26
2023-01-29T02:56:28.891Z,59.07
2023-01-29T02:59:05.274Z,58.52
2023-01-29T03:01:44.158Z,58.55
2023-01-29T03:04:19.346Z,58.74
2023-01-29T03:06:57.966Z,58.74
2023-01-29T03:09:43.336Z,58.39
2023-01-29T03:12:34.110Z,58.12
2023-01-29T03:15:14.315Z,58.03
2023-01-29T03:17:54.366Z,57.50
2023-01-29T03:20:48.065Z,57.56
2023-01-29T03:23:46.706Z,57.58
2023-01-29T03:26:40.814Z,57.35
2023-01-29T03:29:30.579Z,57.52
2023-01-29T03:32:06.610Z,57.47
2023-01-29T03:34:44.039Z,57.60
2023-01-29T03:37:27.596Z,57.38
2023-01-29T03:39:55.579Z,57.35
2023-01-29T03:43:26.061Z,57.35
2023-01-29T03:46:08.890Z,57.73
2023-01-29T03:48:46.010Z,57.35
2023-01-29T03:51:28.716Z,57.27
2023-01-29T03:54:13.117Z,57.00
2023-01-29T03:57:03.162Z,57.35
2023-01-29T04:00:04.508Z,56.85
2023-01-29T04:02:48.087Z,57.10
2023-01-29T04:05:21.345Z,57.08
2023-01-29T04:07:58.408Z,57.32
2023-01-29T04:10:29.599Z,56.61
2023-01-29T04:13:04.860Z,56.80
2023-01-29T04:15:42.474Z,56.21
2023-01-29T04:18:10.769Z,56.62
2023-01-29T04:20:38.105Z,56.38
2023-01-29T04:23:24.566Z,56.55
2023-01-29T04:26:21.837Z,56.99
2023-01-29T04:28:59.595Z,56.80
2023-01-29T04:31:43.486Z,56.68
2023-01-29T04:34:27.620Z,57.00
2023-01-29T04:37:07.687Z,56.63
2023-01-29T04:40:03.785Z,57.32
2023-01-29T04:43:00.779Z,57.21
2023-01-29T04:46:07.436Z,57.07
2023-01-29T04:49:06.261Z,57.17
2023-01-29T04:52:39.873Z,57.47
2023-01-29T04:55:26.220Z,57.67
2023-01-29T04:58:40.110Z,57.88
2023-01-29T05:01:13.117Z,57.86
2023-01-29T05:03:47.676Z,57.96
2023-01-29T05:06:19.097Z,58.15
2023-01-29T05:08:51.206Z,58.38
2023-01-29T05:11:23.316Z,58.27
2023-01-29T05:13:51.420Z,58.44
2023-01-29T05:16:42.205Z,58.37
2023-01-29T05:19:16.049Z,58.66
2023-01-29T05:21:48.263Z,58.71
2023-01-29T05:24:26.889Z,57.82
2023-01-29T05:27:13.836Z,57.83
2023-01-29T05:29:47.294Z,57.93
2023-01-29T05:32:15.721Z,57.13
2023-01-29T05:34:43.096Z,57.34
2023-01-29T05:37:10.851Z,56.82
2023-01-29T05:39:38.025Z,56.82
2023-01-29T05:42:05.035Z,56.30
2023-01-29T05:44:32.300Z,56.21
2023-01-29T05:46:59.223Z,56.33
2023-01-29T05:49:26.477Z,56.05
2023-01-29T05:51:53.356Z,55.46
2023-01-29T05:54:20.585Z,56.14
2023-01-29T05:56:47.610Z,56.32
2023-01-29T05:59:16.643Z,55.59
2023-01-29T06:01:43.775Z,55.77
2023-01-29T06:04:11.011Z,55.81
2023-01-29T06:06:38.061Z,55.94
2023-01-29T06:09:05.268Z,55.47
2023-01-29T06:11:32.240Z,55.68
2023-01-29T06:13:59.427Z,55.61
2023-01-29T06:16:26.461Z,55.73
2023-01-29T06:18:53.726Z,55.69
2023-01-29T06:21:20.651Z,55.61
2023-01-29T06:23:47.969Z,55.72
2023-01-29T06:26:16.321Z,55.73
2023-01-29T06:28:45.914Z,55.99
2023-01-29T06:31:35.294Z,55.61
2023-01-29T06:34:00.316Z,55.61
2023-01-29T06:36:27.180Z,55.83
2023-01-29T06:38:54.408Z,56.19
2023-01-29T06:41:25.516Z,56.18
2023-01-29T06:43:53.114Z,55.83
2023-01-29T06:46:20.245Z,56.06
2023-01-29T06:48:47.762Z,56.21
2023-01-29T06:51:14.639Z,55.88
2023-01-29T06:53:44.102Z,55.43
2023-01-29T06:56:12.632Z,55.65
2023-01-29T06:58:39.856Z,55.70
2023-01-29T07:01:10.979Z,55.82
2023-01-29T07:03:39.098Z,55.44
2023-01-29T07:06:07.047Z,55.49
2023-01-29T07:08:40.619Z,55.62
2023-01-29T07:11:08.294Z,55.95
2023-01-29T07:13:35.480Z,55.37
2023-01-29T07:16:04.914Z,55.57
2023-01-29T07:18:32.842Z,55.84
2023-01-29T07:21:04.705Z,55.75
2023-01-29T07:23:32.265Z,55.73
2023-01-29T07:26:04.635Z,55.90
2023-01-29T07:28:32.086Z,55.91
2023-01-29T07:30:59.596Z,55.57
2023-01-29T07:33:27.090Z,55.16
2023-01-29T07:35:54.058Z,55.54
2023-01-29T07:38:21.374Z,55.70
2023-01-29T07:40:49.059Z,55.70
2023-01-29T07:43:16.912Z,55.60
2023-01-29T07:45:43.875Z,55.85
2023-01-29T07:48:13.379Z,55.77
2023-01-29T07:50:41.117Z,55.93
2023-01-29T07:53:16.868Z,55.85
2023-01-29T07:55:45.454Z,55.64
2023-01-29T07:58:13.311Z,55.42
2023-01-29T08:00:40.363Z,55.36
2023-01-29T08:03:13.141Z,55.50
2023-01-29T08:05:40.144Z,55.69
2023-01-29T08:08:08.063Z,55.31
2023-01-29T08:10:40.495Z,55.38
2023-01-29T08:13:08.724Z,55.50
2023-01-29T08:15:38.789Z,55.78
2023-01-29T08:18:06.742Z,55.85
2023-01-29T08:20:33.950Z,55.56
2023-01-29T08:23:08.180Z,55.79
2023-01-29T08:25:36.366Z,55.65
2023-01-29T08:28:04.733Z,55.57
2023-01-29T08:30:35.226Z,55.60
2023-01-29T08:33:04.915Z,55.77
2023-01-29T08:35:32.055Z,55.45
2023-01-29T08:38:03.421Z,55.44
2023-01-29T08:40:33.927Z,55.27
2023-01-29T08:43:13.532Z,55.70
2023-01-29T08:45:43.654Z,55.60
2023-01-29T08:48:11.009Z,55.88
2023-01-29T08:50:38.705Z,55.84
2023-01-29T08:53:09.298Z,55.48
2023-01-29T08:55:38.865Z,55.75
2023-01-29T08:58:11.750Z,55.60
2023-01-29T09:00:39.356Z,55.50
2023-01-29T09:03:07.983Z,55.36
2023-01-29T09:05:39.116Z,55.17
2023-01-29T09:08:08.508Z,54.22
2023-01-29T09:10:36.646Z,55.04
2023-01-29T09:13:04.932Z,54.54
2023-01-29T09:15:31.808Z,54.69
2023-01-29T09:18:04.027Z,55.41
2023-01-29T09:20:31.247Z,54.95
2023-01-29T09:22:59.300Z,54.96
2023-01-29T09:25:26.222Z,54.89
2023-01-29T09:27:54.704Z,54.71
2023-01-29T09:30:21.812Z,55.15
2023-01-29T09:32:53.627Z,54.57
2023-01-29T09:35:23.371Z,54.60
2023-01-29T09:37:52.231Z,55.14
2023-01-29T09:40:51.673Z,54.10
2023-01-29T09:43:27.436Z,54.65
2023-01-29T09:46:30.805Z,54.20
2023-01-29T09:49:07.495Z,53.71
2023-01-29T09:51:45.067Z,52.89
2023-01-29T09:55:26.770Z,53.08
2023-01-29T09:58:00.927Z,52.64
2023-01-29T10:00:43.125Z,52.25
2023-01-29T10:03:31.237Z,52.24
2023-01-29T10:06:07.418Z,51.88
2023-01-29T10:08:46.332Z,51.91
2023-01-29T10:11:42.726Z,52.33
2023-01-29T10:14:44.839Z,51.83
2023-01-29T10:17:23.416Z,51.90
2023-01-29T10:20:39.472Z,52.19
2023-01-29T10:23:09.585Z,52.06
2023-01-29T10:25:42.152Z,51.45
2023-01-29T10:28:48.728Z,52.04
2023-01-29T10:31:22.494Z,52.23
2023-01-29T10:34:02.524Z,51.91
2023-01-29T10:36:44.602Z,52.21
2023-01-29T10:39:19.145Z,52.04
2023-01-29T10:42:13.399Z,52.19
2023-01-29T10:44:43.776Z,51.62
2023-01-29T10:47:48.059Z,52.10
2023-01-29T10:50:45.571Z,51.74
2023-01-29T10:53:40.976Z,51.81
2023-01-29T10:56:48.877Z,51.54
2023-01-29T10:59:51.827Z,51.91
2023-01-29T11:02:22.645Z,51.90
2023-01-29T11:04:50.379Z,52.37
2023-01-29T11:07:22.026Z,52.61
2023-01-29T11:10:08.461Z,52.37
2023-01-29T11:12:38.880Z,52.39
2023-01-29T11:15:18.392Z,51.97
2023-01-29T11:18:21.219Z,52.18
2023-01-29T11:21:02.953Z,52.21
2023-01-29T11:23:33.827Z,52.09
2023-01-29T11:26:01.517Z,52.34
2023-01-29T11:28:42.730Z,52.35
2023-01-29T11:31:29.419Z,52.49
2023-01-29T11:34:27.813Z,52.12
2023-01-29T11:37:16.994Z,52.07
2023-01-29T11:39:48.795Z,51.90
2023-01-29T11:42:22.938Z,51.50
2023-01-29T11:44:50.396Z,51.87
2023-01-29T11:47:49.857Z,51.46
2023-01-29T11:50:27.945Z,51.24
2023-01-29T11:52:55.857Z,51.42
2023-01-29T11:55:29.724Z,51.10
2023-01-29T11:58:30.169Z,51.03
2023-01-29T12:00:59.947Z,51.23
2023-01-29T12:03:36.488Z,51.26
2023-01-29T12:06:22.644Z,51.72
2023-01-29T12:08:59.478Z,51.73
2023-01-29T12:11:35.382Z,51.61
2023-01-29T12:14:22.722Z,51.42
2023-01-29T12:17:03.907Z,51.49
2023-01-29T12:19:43.068Z,52.02
2023-01-29T12:22:56.291Z,51.81
2023-01-29T12:25:38.117Z,51.44
2023-01-29T12:28:23.350Z,52.01
2023-01-29T12:31:36.916Z,51.83
2023-01-29T12:34:20.508Z,52.05
2023-01-29T12:36:55.521Z,52.27
2023-01-29T12:39:22.844Z,51.96
2023-01-29T12:42:25.559Z,52.17
2023-01-29T12:45:01.487Z,51.89
2023-01-29T12:47:56.568Z,51.51
2023-01-29T12:50:35.403Z,51.95
2023-01-29T12:53:30.899Z,52.40
2023-01-29T12:56:05.668Z,51.80
2023-01-29T12:58:41.772Z,51.86
2023-01-29T13:01:53.894Z,52.39
2023-01-29T13:04:38.115Z,52.25
2023-01-29T13:07:23.788Z,51.97
2023-01-29T13:09:57.950Z,52.14
2023-01-29T13:12:27.225Z,51.82
2023-01-29T13:15:23.384Z,52.57
2023-01-29T13:18:07.270Z,52.56
2023-01-29T13:20:35.954Z,52.16
2023-01-29T13:23:32.474Z,52.30
2023-01-29T13:26:00.390Z,52.87
2023-01-29T13:28:28.192Z,52.72
2023-01-29T13:31:33.256Z,52.60
2023-01-29T13:34:29.452Z,52.77
2023-01-29T13:37:20.762Z,53.14
2023-01-29T13:39:53.226Z,53.24
2023-01-29T13:42:21.748Z,53.36
2023-01-29T13:45:02.837Z,53.85
2023-01-29T13:47:37.478Z,53.43
2023-01-29T13:50:06.680Z,53.45
2023-01-29T13:52:44.702Z,53.47
2023-01-29T13:55:15.291Z,53.52
2023-01-29T13:57:46.091Z,53.27
2023-01-29T14:00:22.489Z,53.47
2023-01-29T14:02:55.604Z,52.70
2023-01-29T14:05:32.168Z,53.39
2023-01-29T14:08:03.631Z,52.75
2023-01-29T14:10:37.657Z,52.98
2023-01-29T14:13:04.460Z,53.16
2023-01-29T14:15:37.767Z,52.98
2023-01-29T14:18:23.978Z,53.23
2023-01-29T14:20:58.644Z,52.74
2023-01-29T14:23:44.237Z,52.64
2023-01-29T14:26:46.130Z,52.93
2023-01-29T14:29:16.500Z,52.75
2023-01-29T14:32:19.697Z,53.11
2023-01-29T14:34:57.822Z,53.59
2023-01-29T14:37:40.436Z,53.67
2023-01-29T14:40:19.361Z,53.44
2023-01-29T14:43:25.656Z,53.41
2023-01-29T14:45:52.565Z,53.32
2023-01-29T14:48:52.034Z,53.70
2023-01-29T14:51:21.363Z,53.57
2023-01-29T14:54:28.165Z,53.43
2023-01-29T14:57:09.009Z,53.53
2023-01-29T15:00:05.302Z,53.72
2023-01-29T15:02:45.346Z,53.55
2023-01-29T15:05:22.259Z,53.93
2023-01-29T15:08:00.839Z,53.62
2023-01-29T15:10:45.603Z,53.98
2023-01-29T15:13:42.094Z,53.63
2023-01-29T15:16:24.792Z,53.70
2023-01-29T15:19:06.170Z,53.84
2023-01-29T15:21:33.471Z,54.15
2023-01-29T15:24:06.841Z,54.16
2023-01-29T15:26:36.495Z,54.52
2023-01-29T15:29:05.894Z,54.59
2023-01-29T15:31:35.587Z,54.73
2023-01-29T15:34:07.669Z,54.57
2023-01-29T15:36:37.383Z,54.53
2023-01-29T15:39:13.407Z,55.06
2023-01-29T15:41:40.955Z,55.09
2023-01-29T15:44:23.830Z,55.27
2023-01-29T15:47:01.532Z,55.37
2023-01-29T15:49:36.440Z,55.06
2023-01-29T15:52:22.825Z,55.14
2023-01-29T15:54:51.392Z,55.21
2023-01-29T15:57:28.372Z,54.72
2023-01-29T15:59:58.656Z,54.92
2023-01-29T16:02:34.638Z,55.35
2023-01-29T16:05:04.865Z,55.32
2023-01-29T16:07:32.831Z,55.05
2023-01-29T16:10:01.013Z,55.43
2023-01-29T16:12:28.992Z,55.65
2023-01-29T16:14:57.338Z,55.75
2023-01-29T16:17:27.800Z,55.63
2023-01-29T16:20:05.997Z,56.02
2023-01-29T16:22:37.316Z,56.23
2023-01-29T16:25:14.888Z,55.69
2023-01-29T16:27:44.779Z,55.96
2023-01-29T16:30:17.521Z,55.97
2023-01-29T16:32:46.013Z,55.89
2023-01-29T16:35:17.257Z,56.19
2023-01-29T16:37:50.502Z,56.62
2023-01-29T16:40:34.542Z,56.42
2023-01-29T16:43:17.090Z,56.68
2023-01-29T16:46:15.842Z,56.67
2023-01-29T16:48:43.298Z,56.65
2023-01-29T16:51:36.167Z,56.79
2023-01-29T16:54:23.392Z,57.05
2023-01-29T16:56:59.912Z,57.11
2023-01-29T16:59:36.612Z,57.27
2023-01-29T17:02:11.562Z,56.99
2023-01-29T17:04:41.895Z,57.24
2023-01-29T17:07:21.408Z,57.34
2023-01-29T17:09:54.666Z,57.20
2023-01-29T17:12:25.237Z,57.37
2023-01-29T17:15:00.519Z,57.85
2023-01-29T17:17:36.224Z,57.83
2023-01-29T17:20:15.777Z,57.88
2023-01-29T17:22:43.191Z,57.88
2023-01-29T17:25:15.835Z,58.22
2023-01-29T17:27:51.456Z,58.23
2023-01-29T17:30:23.956Z,58.62
2023-01-29T17:32:50.946Z,58.77
2023-01-29T17:35:18.625Z,58.62
2023-01-29T17:37:45.876Z,58.68
2023-01-29T17:40:33.518Z,58.60
2023-01-29T17:43:00.614Z,58.31
2023-01-29T17:45:27.956Z,58.36
2023-01-29T17:47:55.280Z,58.41
2023-01-29T17:50:27.583Z,58.47
2023-01-29T17:52:54.627Z,58.67
2023-01-29T17:55:21.951Z,58.76
2023-01-29T17:57:49.044Z,58.74
2023-01-29T18:00:25.020Z,58.66
2023-01-29T18:02:51.959Z,59.09
2023-01-29T18:05:19.577Z,59.25
2023-01-29T18:07:48.129Z,59.45
2023-01-29T18:10:21.536Z,59.56
2023-01-29T18:12:48.669Z,59.33
2023-01-29T18:15:16.446Z,59.34
2023-01-29T18:17:44.916Z,59.83
2023-01-29T18:20:25.814Z,59.81
2023-01-29T18:22:53.800Z,59.78
2023-01-29T18:25:21.604Z,59.42
2023-01-29T18:27:49.644Z,59.66
2023-01-29T18:30:17.911Z,59.47
2023-01-29T18:32:44.974Z,59.04
2023-01-29T18:35:12.340Z,59.27
2023-01-29T18:37:39.376Z,59.12
2023-01-29T18:40:07.619Z,59.18
2023-01-29T18:42:36.012Z,59.12
2023-01-29T18:45:03.979Z,59.71
2023-01-29T18:47:31.386Z,59.25
2023-01-29T18:49:58.896Z,59.34
2023-01-29T18:52:26.307Z,59.49
2023-01-29T18:54:54.035Z,59.58
2023-01-29T18:58:29.054Z,59.34
2023-01-29T19:00:09.588Z,59.62
2023-01-29T19:02:36.766Z,59.36
2023-01-29T19:05:04.417Z,59.71
2023-01-29T19:07:31.379Z,59.98
2023-01-29T19:09:58.596Z,60.00
2023-01-29T19:12:25.538Z,60.23
2023-01-29T19:14:52.686Z,59.73
2023-01-29T19:17:20.215Z,60.00
2023-01-29T19:19:47.540Z,60.09
2023-01-29T19:22:14.439Z,60.16
2023-01-29T19:24:41.927Z,60.31
2023-01-29T19:27:09.077Z,60.22
2023-01-29T19:29:36.471Z,60.12
2023-01-29T19:32:03.893Z,60.11
2023-01-29T19:34:31.157Z,60.01
2023-01-29T19:36:58.072Z,59.83
2023-01-29T19:39:29.883Z,60.31
2023-01-29T19:41:57.484Z,60.59
2023-01-29T19:44:25.512Z,60.43
2023-01-29T19:46:54.094Z,60.60
2023-01-29T19:49:21.240Z,60.03
2023-01-29T19:51:49.234Z,60.73
2023-01-29T19:54:16.459Z,60.84
2023-01-29T19:56:43.454Z,60.63
2023-01-29T19:59:11.235Z,60.59
2023-01-29T20:01:38.344Z,60.58
2023-01-29T20:04:06.187Z,60.65
2023-01-29T20:06:33.128Z,60.56
2023-01-29T20:09:02.963Z,60.31
2023-01-29T20:11:30.935Z,60.61
2023-01-29T20:13:59.090Z,60.24
2023-01-29T20:16:26.929Z,60.50
2023-01-29T20:18:54.320Z,60.32
2023-01-29T20:21:22.272Z,60.11
2023-01-29T20:23:51.995Z,60.43
2023-01-29T20:26:20.384Z,60.35
2023-01-29T20:28:48.429Z,60.16
2023-01-29T20:31:16.843Z,59.76
2023-01-29T20:33:44.540Z,59.67
2023-01-29T20:36:13.390Z,59.90
2023-01-29T20:38:43.345Z,59.39
2023-01-29T20:41:17.179Z,59.62
2023-01-29T20:43:46.009Z,59.29
2023-01-29T20:46:13.764Z,59.71
2023-01-29T20:48:42.355Z,60.01
2023-01-29T20:51:16.144Z,60.05
2023-01-29T20:53:46.898Z,60.01
2023-01-29T20:56:17.073Z,60.16
2023-01-29T20:58:46.718Z,60.15
2023-01-29T21:01:20.278Z,60.37
2023-01-29T21:03:48.755Z,60.15
2023-01-29T21:06:16.289Z,60.13
2023-01-29T21:08:43.996Z,60.21
2023-01-29T21:11:11.419Z,60.31
2023-01-29T21:13:38.984Z,60.37
2023-01-29T21:16:06.823Z,60.01
2023-01-29T21:18:33.997Z,60.39
2023-01-29T21:21:01.066Z,60.25
2023-01-29T21:23:28.527Z,60.69
2023-01-29T21:26:05.593Z,60.20
2023-01-29T21:28:33.281Z,60.06
2023-01-29T21:31:12.002Z,60.14
2023-01-29T21:33:39.267Z,60.10
2023-01-29T21:36:07.494Z,60.34
2023-01-29T21:38:34.808Z,60.05
2023-01-29T21:41:05.526Z,60.80
2023-01-29T21:43:33.408Z,60.51
2023-01-29T21:46:05.139Z,60.55
2023-01-29T21:48:32.592Z,60.40
2023-01-29T21:50:59.521Z,60.52
2023-01-29T21:53:26.860Z,61.00
2023-01-29T21:56:00.860Z,60.22
2023-01-29T21:58:28.466Z,60.22
2023-01-29T22:00:55.613Z,60.55
2023-01-29T22:03:23.292Z,60.17
2023-01-29T22:05:50.678Z,60.12
2023-01-29T22:08:18.396Z,59.99
2023-01-29T22:10:45.526Z,60.51
2023-01-29T22:13:13.689Z,60.27
2023-01-29T22:15:40.856Z,60.25
2023-01-29T22:18:08.087Z,60.34
2023-01-29T22:20:36.748Z,60.40
2023-01-29T22:23:03.971Z,60.33
2023-01-29T22:25:32.370Z,60.82
2023-01-29T22:27:59.697Z,60.82
2023-01-29T22:30:27.139Z,60.75
2023-01-29T22:32:54.427Z,61.04
2023-01-29T22:35:21.407Z,60.94
2023-01-29T22:37:48.689Z,61.12
2023-01-29T22:40:16.003Z,60.94
2023-01-29T22:42:43.293Z,61.17
2023-01-29T22:45:11.216Z,60.89
2023-01-29T22:47:38.654Z,61.15
2023-01-29T22:50:07.579Z,61.27
2023-01-29T22:52:42.535Z,61.35
2023-01-29T22:55:11.781Z,61.85
2023-01-29T22:57:40.123Z,62.04
2023-01-29T23:00:11.273Z,61.88
2023-01-29T23:02:38.527Z,61.92
2023-01-29T23:05:06.491Z,61.84
2023-01-29T23:07:33.967Z,62.29
2023-01-29T23:10:01.099Z,62.56
2023-01-29T23:12:28.040Z,62.23
2023-01-29T23:14:55.362Z,62.52
2023-01-29T23:17:22.451Z,62.84
2023-01-29T23:19:49.641Z,62.64
2023-01-29T23:22:16.559Z,62.66
2023-01-29T23:24:43.796Z,63.03
2023-01-29T23:27:16.880Z,62.93
2023-01-29T23:29:47.209Z,62.51
2023-01-29T23:32:19.204Z,62.88
2023-01-29T23:34:46.636Z,63.00
2023-01-29T23:37:13.769Z,63.11
2023-01-29T23:39:41.028Z,63.13
2023-01-29T23:42:08.128Z,62.98
2023-01-29T23:44:35.886Z,62.82
2023-01-29T23:47:03.004Z,63.38
2023-01-29T23:49:30.239Z,63.18
2023-01-29T23:51:57.442Z,63.09
2023-01-29T23:54:24.900Z,62.95
2023-01-29T23:56:52.118Z,62.93
2023-01-29T23:59:19.587Z,63.20
